createdAt,value
2018-05-26T00:02:24.594Z,17.49
2018-05-26T00:04:52.198Z,17.45
2018-05-26T00:07:19.825Z,17.39
2018-05-26T00:09:47.427Z,17.36
2018-05-26T00:12:15.059Z,17.32
2018-05-26T00:14:42.660Z,17.30
2018-05-26T00:17:10.557Z,17.32
2018-05-26T00:19:38.216Z,17.29
2018-05-26T00:22:05.889Z,17.28
2018-05-26T00:24:33.532Z,17.29
2018-05-26T00:27:01.133Z,17.27
2018-05-26T00:29:28.766Z,17.27
2018-05-26T00:31:56.368Z,17.21
2018-05-26T00:34:24.102Z,17.17
2018-05-26T00:36:51.698Z,17.18
2018-05-26T00:39:19.299Z,17.09
2018-05-26T00:41:46.935Z,17.13
2018-05-26T00:44:14.758Z,17.11
2018-05-26T00:46:42.409Z,17.15
2018-05-26T00:49:10.010Z,17.14
2018-05-26T00:51:37.937Z,17.08
2018-05-26T00:54:05.543Z,17.10
2018-05-26T00:56:33.259Z,17.10
2018-05-26T00:59:00.891Z,17.13
2018-05-26T01:01:28.524Z,17.11
2018-05-26T01:03:56.153Z,17.13
2018-05-26T01:06:23.918Z,17.03
2018-05-26T01:08:51.532Z,17.05
2018-05-26T01:11:19.160Z,17.07
2018-05-26T01:13:46.763Z,17.07
2018-05-26T01:16:14.557Z,17.03
2018-05-26T01:18:42.168Z,17.01
2018-05-26T01:21:09.814Z,17.00
2018-05-26T01:23:37.452Z,17.01
2018-05-26T01:26:05.197Z,17.01
2018-05-26T01:28:32.865Z,17.01
2018-05-26T01:31:00.457Z,16.95
2018-05-26T01:33:28.118Z,16.92
2018-05-26T01:35:55.746Z,16.93
2018-05-26T01:38:23.380Z,16.83
2018-05-26T01:40:51.015Z,16.85
2018-05-26T01:43:18.615Z,16.79
2018-05-26T01:45:46.298Z,16.66
2018-05-26T01:48:13.901Z,16.66
2018-05-26T01:50:41.965Z,16.65
2018-05-26T01:53:09.948Z,16.65
2018-05-26T01:55:38.114Z,16.66
2018-05-26T01:58:05.817Z,16.70
2018-05-26T02:00:33.672Z,16.63
2018-05-26T02:03:01.375Z,16.63
2018-05-26T02:05:29.542Z,16.63
2018-05-26T02:07:57.311Z,16.62
2018-05-26T02:10:25.353Z,16.63
2018-05-26T02:12:53.143Z,16.62
2018-05-26T02:15:20.779Z,16.61
2018-05-26T02:17:48.398Z,16.55
2018-05-26T02:20:16.056Z,16.53
2018-05-26T02:22:43.655Z,16.42
2018-05-26T02:25:11.260Z,16.38
2018-05-26T02:27:38.978Z,16.42
2018-05-26T02:30:06.598Z,16.42
2018-05-26T02:32:34.230Z,16.40
2018-05-26T02:35:01.841Z,16.44
2018-05-26T02:37:29.667Z,16.36
2018-05-26T02:39:57.282Z,16.26
2018-05-26T02:42:24.882Z,16.21
2018-05-26T02:44:52.514Z,16.21
2018-05-26T02:47:20.114Z,16.15
2018-05-26T02:49:47.747Z,16.07
2018-05-26T02:52:15.366Z,16.06
2018-05-26T02:54:43.100Z,16.04
2018-05-26T02:57:10.715Z,16.08
2018-05-26T02:59:38.322Z,16.13
2018-05-26T03:02:05.964Z,16.13
2018-05-26T03:04:39.197Z,16.09
2018-05-26T03:07:12.885Z,16.11
2018-05-26T03:09:46.127Z,16.12
2018-05-26T03:12:19.261Z,16.16
2018-05-26T03:14:47.224Z,16.19
2018-05-26T03:20:19.141Z,16.20
2018-05-26T03:22:46.767Z,16.08
2018-05-26T03:25:14.376Z,16.13
2018-05-26T03:27:41.999Z,16.11
2018-05-26T03:30:09.598Z,16.08
2018-05-26T03:32:37.241Z,16.09
2018-05-26T03:35:04.843Z,16.13
2018-05-26T03:37:32.438Z,16.13
2018-05-26T03:40:00.068Z,16.20
2018-05-26T03:42:27.662Z,16.18
2018-05-26T03:44:55.283Z,16.09
2018-05-26T03:47:22.879Z,16.11
2018-05-26T03:49:50.538Z,16.04
2018-05-26T03:52:18.135Z,16.08
2018-05-26T03:58:02.843Z,16.12
2018-05-26T04:00:30.489Z,16.17
2018-05-26T04:02:58.097Z,16.11
2018-05-26T04:05:25.725Z,16.14
2018-05-26T04:07:53.355Z,16.19
2018-05-26T04:10:21.185Z,16.16
2018-05-26T04:12:48.872Z,16.21
2018-05-26T04:15:16.650Z,16.19
2018-05-26T04:17:44.916Z,16.19
2018-05-26T04:20:12.593Z,16.18
2018-05-26T04:22:40.191Z,16.18
2018-05-26T04:25:07.811Z,16.18
2018-05-26T04:27:35.403Z,16.20
2018-05-26T04:30:03.033Z,16.10
2018-05-26T04:32:30.666Z,16.12
2018-05-26T04:34:58.313Z,16.08
2018-05-26T04:37:25.910Z,16.03
2018-05-26T04:39:53.515Z,15.97
2018-05-26T04:42:21.137Z,16.03
2018-05-26T04:44:48.732Z,16.08
2018-05-26T04:47:16.364Z,16.03
2018-05-26T04:49:43.967Z,16.09
2018-05-26T04:52:11.772Z,16.15
2018-05-26T04:54:39.370Z,16.20
2018-05-26T04:57:06.979Z,16.26
2018-05-26T04:59:34.716Z,16.28
2018-05-26T05:02:02.309Z,16.31
2018-05-26T05:04:29.975Z,16.37
2018-05-26T05:06:57.640Z,16.46
2018-05-26T05:09:25.625Z,16.47
2018-05-26T05:11:53.309Z,16.48
2018-05-26T05:14:20.910Z,16.57
2018-05-26T05:16:48.529Z,16.63
2018-05-26T05:19:16.277Z,16.68
2018-05-26T05:21:43.910Z,16.69
2018-05-26T05:24:11.512Z,16.73
2018-05-26T05:26:39.292Z,16.80
2018-05-26T05:29:06.948Z,16.97
2018-05-26T05:31:34.560Z,17.11
2018-05-26T05:34:02.207Z,17.29
2018-05-26T05:36:29.806Z,17.24
2018-05-26T05:38:57.507Z,17.31
2018-05-26T05:41:25.100Z,17.37
2018-05-26T05:43:52.726Z,17.45
2018-05-26T05:46:20.322Z,17.48
2018-05-26T05:48:47.948Z,17.77
2018-05-26T05:51:15.551Z,17.68
2018-05-26T05:53:43.153Z,17.66
2018-05-26T05:56:10.794Z,17.79
2018-05-26T05:58:38.412Z,17.79
2018-05-26T06:01:06.045Z,17.79
2018-05-26T06:03:33.656Z,17.84
2018-05-26T06:06:01.291Z,18.04
2018-05-26T06:08:28.886Z,17.96
2018-05-26T06:10:56.497Z,18.04
2018-05-26T06:13:24.108Z,17.96
2018-05-26T06:15:51.714Z,18.14
2018-05-26T06:18:19.338Z,18.11
2018-05-26T06:20:46.947Z,18.28
2018-05-26T06:23:14.595Z,18.33
2018-05-26T06:25:42.194Z,18.35
2018-05-26T06:28:09.895Z,18.38
2018-05-26T06:30:37.519Z,18.50
2018-05-26T06:33:05.116Z,18.56
2018-05-26T06:35:32.731Z,18.57
2018-05-26T06:38:00.333Z,18.73
2018-05-26T06:40:28.204Z,18.80
2018-05-26T06:42:55.798Z,18.76
2018-05-26T06:45:23.403Z,18.85
2018-05-26T06:47:51.030Z,18.95
2018-05-26T06:50:18.622Z,19.12
2018-05-26T06:52:46.385Z,19.22
2018-05-26T06:55:13.986Z,19.32
2018-05-26T06:57:42.052Z,19.42
2018-05-26T07:00:09.649Z,19.49
2018-05-26T07:02:37.237Z,19.59
2018-05-26T07:05:04.859Z,19.68
2018-05-26T07:07:32.455Z,19.80
2018-05-26T07:10:00.099Z,19.92
2018-05-26T07:12:27.696Z,20.06
2018-05-26T07:14:55.588Z,20.08
2018-05-26T07:17:23.191Z,20.16
2018-05-26T07:19:50.797Z,20.27
2018-05-26T07:22:18.431Z,20.35
2018-05-26T07:24:46.062Z,20.44
2018-05-26T07:27:13.679Z,20.56
2018-05-26T07:29:41.277Z,20.58
2018-05-26T07:32:09.114Z,20.71
2018-05-26T07:34:36.722Z,20.76
2018-05-26T07:37:04.440Z,20.86
2018-05-26T07:39:32.054Z,21.05
2018-05-26T07:41:59.653Z,21.20
2018-05-26T07:44:27.323Z,21.30
2018-05-26T07:46:54.948Z,21.33
2018-05-26T07:49:22.604Z,21.45
2018-05-26T07:51:50.204Z,21.56
2018-05-26T07:54:17.815Z,21.63
2018-05-26T07:56:45.454Z,21.65
2018-05-26T07:59:13.050Z,21.67
2018-05-26T08:01:40.699Z,21.72
2018-05-26T08:04:08.294Z,21.69
2018-05-26T08:06:35.920Z,21.78
2018-05-26T08:09:03.530Z,21.85
2018-05-26T08:11:31.143Z,21.95
2018-05-26T08:13:58.767Z,22.01
2018-05-26T08:16:26.365Z,22.11
2018-05-26T08:18:53.998Z,22.06
2018-05-26T08:21:21.605Z,21.98
2018-05-26T08:23:49.515Z,22.26
2018-05-26T08:26:17.291Z,22.41
2018-05-26T08:28:44.890Z,22.50
2018-05-26T08:31:12.507Z,22.56
2018-05-26T08:33:40.122Z,22.73
2018-05-26T08:36:07.741Z,22.70
2018-05-26T08:38:35.340Z,22.62
2018-05-26T08:41:02.972Z,22.70
2018-05-26T08:43:30.567Z,22.76
2018-05-26T08:45:58.194Z,22.94
2018-05-26T08:48:25.814Z,23.08
2018-05-26T08:50:53.414Z,23.14
2018-05-26T08:53:21.050Z,23.14
2018-05-26T08:55:48.666Z,23.22
2018-05-26T08:58:16.255Z,23.34
2018-05-26T09:00:43.873Z,23.28
2018-05-26T09:03:11.466Z,23.43
2018-05-26T09:05:39.141Z,23.42
2018-05-26T09:08:06.697Z,23.34
2018-05-26T09:10:34.686Z,23.08
2018-05-26T09:13:02.302Z,23.03
2018-05-26T09:15:29.891Z,23.22
2018-05-26T09:17:57.523Z,23.23
2018-05-26T09:20:25.117Z,23.33
2018-05-26T09:22:52.759Z,23.45
2018-05-26T09:25:20.371Z,23.56
2018-05-26T09:27:48.144Z,23.70
2018-05-26T09:30:15.806Z,23.69
2018-05-26T09:32:43.378Z,23.84
2018-05-26T09:35:11.006Z,23.61
2018-05-26T09:37:38.618Z,23.49
2018-05-26T09:40:06.297Z,23.59
2018-05-26T09:42:33.866Z,23.79
2018-05-26T09:45:01.974Z,23.90
2018-05-26T09:47:29.582Z,23.84
2018-05-26T09:49:57.180Z,23.84
2018-05-26T09:52:24.800Z,24.09
2018-05-26T09:54:52.396Z,24.09
2018-05-26T09:57:20.073Z,24.25
2018-05-26T09:59:47.666Z,24.32
2018-05-26T10:02:15.609Z,24.63
2018-05-26T10:04:43.205Z,24.64
2018-05-26T10:07:10.810Z,24.61
2018-05-26T10:09:38.431Z,24.71
2018-05-26T10:12:06.036Z,24.80
2018-05-26T10:14:33.725Z,24.88
2018-05-26T10:17:01.315Z,24.98
2018-05-26T10:19:29.037Z,24.93
2018-05-26T10:21:56.636Z,24.95
2018-05-26T10:24:24.230Z,24.74
2018-05-26T10:26:51.851Z,24.65
2018-05-26T10:29:19.452Z,24.63
2018-05-26T10:31:47.066Z,24.59
2018-05-26T10:34:14.698Z,24.63
2018-05-26T10:36:42.342Z,24.70
2018-05-26T10:39:09.931Z,24.66
2018-05-26T10:41:37.802Z,24.66
2018-05-26T10:44:05.385Z,24.50
2018-05-26T10:46:33.013Z,24.72
2018-05-26T10:49:00.630Z,24.91
2018-05-26T10:51:28.243Z,24.92
2018-05-26T10:53:55.917Z,25.16
2018-05-26T10:56:23.558Z,25.04
2018-05-26T10:58:51.251Z,25.25
2018-05-26T11:01:18.871Z,25.45
2018-05-26T11:03:46.464Z,25.64
2018-05-26T11:06:14.101Z,25.55
2018-05-26T11:08:42.004Z,25.76
2018-05-26T11:11:09.747Z,25.76
2018-05-26T11:13:37.359Z,26.05
2018-05-26T11:16:05.353Z,26.11
2018-05-26T11:18:32.950Z,26.23
2018-05-26T11:21:00.554Z,26.10
2018-05-26T11:23:28.178Z,26.12
2018-05-26T11:25:55.834Z,26.06
2018-05-26T11:28:23.468Z,26.25
2018-05-26T11:30:51.070Z,26.38
2018-05-26T11:33:18.710Z,26.33
2018-05-26T11:35:46.320Z,26.50
2018-05-26T11:38:13.919Z,26.66
2018-05-26T11:40:41.587Z,26.82
2018-05-26T11:43:09.174Z,26.64
2018-05-26T11:45:36.808Z,26.74
2018-05-26T11:48:04.402Z,26.63
2018-05-26T11:50:32.044Z,26.83
2018-05-26T11:52:59.651Z,26.93
2018-05-26T11:55:27.254Z,26.89
2018-05-26T11:57:54.904Z,27.33
2018-05-26T12:00:22.502Z,27.40
2018-05-26T12:02:50.334Z,27.55
2018-05-26T12:05:17.932Z,27.69
2018-05-26T12:07:45.521Z,28.06
2018-05-26T12:10:13.167Z,28.22
2018-05-26T12:12:40.774Z,28.32
2018-05-26T12:15:08.406Z,28.37
2018-05-26T12:17:36.002Z,28.56
2018-05-26T12:20:03.643Z,28.76
2018-05-26T12:22:31.260Z,29.00
2018-05-26T12:24:58.871Z,29.30
2018-05-26T12:27:26.964Z,28.98
2018-05-26T12:29:54.566Z,28.84
2018-05-26T12:32:22.165Z,28.81
2018-05-26T12:34:49.800Z,28.87
2018-05-26T12:37:17.517Z,28.73
2018-05-26T12:39:45.294Z,28.71
2018-05-26T12:42:12.908Z,28.84
2018-05-26T12:44:40.490Z,28.97
2018-05-26T12:47:08.133Z,28.91
2018-05-26T12:49:35.855Z,28.83
2018-05-26T12:52:03.593Z,28.52
2018-05-26T12:54:31.205Z,28.23
2018-05-26T12:56:59.018Z,27.78
2018-05-26T12:59:26.625Z,27.72
2018-05-26T13:01:54.236Z,28.16
2018-05-26T13:04:21.906Z,28.24
2018-05-26T13:06:49.580Z,28.96
2018-05-26T13:09:17.673Z,30.06
2018-05-26T13:11:45.280Z,31.18
2018-05-26T13:14:12.877Z,32.44
2018-05-26T13:16:40.513Z,31.97
2018-05-26T13:19:08.136Z,31.57
2018-05-26T13:21:35.752Z,30.54
2018-05-26T13:24:03.365Z,30.06
2018-05-26T13:26:31.172Z,31.18
2018-05-26T13:28:58.767Z,32.40
2018-05-26T13:31:26.366Z,32.35
2018-05-26T13:33:54.172Z,31.78
2018-05-26T13:36:21.753Z,31.02
2018-05-26T13:38:49.585Z,30.20
2018-05-26T13:41:17.178Z,30.67
2018-05-26T13:43:44.812Z,31.60
2018-05-26T13:46:12.431Z,32.09
2018-05-26T13:48:40.026Z,32.83
2018-05-26T13:51:08.098Z,32.99
2018-05-26T13:53:35.767Z,33.15
2018-05-26T13:56:03.378Z,32.79
2018-05-26T13:58:31.008Z,31.75
2018-05-26T14:00:58.616Z,31.84
2018-05-26T14:03:26.234Z,30.49
2018-05-26T14:05:53.822Z,29.91
2018-05-26T14:08:21.549Z,29.31
2018-05-26T14:10:49.150Z,29.02
2018-05-26T14:13:16.807Z,28.72
2018-05-26T14:15:44.431Z,28.39
2018-05-26T14:18:12.186Z,28.29
2018-05-26T14:20:39.795Z,28.28
2018-05-26T14:23:07.408Z,28.00
2018-05-26T14:25:35.201Z,27.99
2018-05-26T14:28:02.788Z,27.88
2018-05-26T14:30:30.378Z,27.74
2018-05-26T14:32:57.996Z,27.63
2018-05-26T14:35:25.600Z,27.62
2018-05-26T14:37:53.236Z,27.53
2018-05-26T14:40:21.961Z,27.56
2018-05-26T14:42:50.043Z,27.60
2018-05-26T14:45:17.670Z,27.63
2018-05-26T14:47:45.539Z,27.71
2018-05-26T14:50:13.195Z,27.87
2018-05-26T14:52:40.796Z,27.92
2018-05-26T14:55:08.485Z,27.95
2018-05-26T14:57:36.131Z,27.88
2018-05-26T15:00:03.754Z,27.75
2018-05-26T15:02:31.395Z,27.92
2018-05-26T15:04:59.017Z,27.91
2018-05-26T15:07:26.891Z,27.88
2018-05-26T15:09:54.626Z,27.67
2018-05-26T15:12:22.299Z,27.67
2018-05-26T15:14:49.899Z,27.77
2018-05-26T15:17:17.529Z,27.52
2018-05-26T15:19:45.115Z,27.60
2018-05-26T15:22:12.843Z,27.44
2018-05-26T15:24:40.439Z,27.44
2018-05-26T15:27:08.124Z,27.52
2018-05-26T15:29:35.734Z,27.52
2018-05-26T15:32:03.363Z,27.54
2018-05-26T15:34:30.976Z,27.49
2018-05-26T15:36:58.621Z,27.41
2018-05-26T15:39:26.882Z,27.52
2018-05-26T15:41:54.487Z,27.49
2018-05-26T15:44:22.109Z,27.54
2018-05-26T15:46:50.477Z,27.60
2018-05-26T15:49:18.261Z,27.55
2018-05-26T15:51:46.023Z,27.39
2018-05-26T15:54:13.786Z,27.49
2018-05-26T15:56:41.373Z,27.47
2018-05-26T15:59:09.024Z,27.48
2018-05-26T16:01:36.672Z,27.44
2018-05-26T16:04:04.260Z,27.52
2018-05-26T16:06:32.075Z,27.62
2018-05-26T16:08:59.685Z,27.52
2018-05-26T16:11:27.414Z,27.44
2018-05-26T16:13:55.027Z,27.46
2018-05-26T16:16:22.631Z,27.50
2018-05-26T16:18:50.288Z,27.54
2018-05-26T16:21:17.900Z,27.56
2018-05-26T16:23:45.538Z,27.42
2018-05-26T16:26:13.339Z,27.42
2018-05-26T16:28:41.365Z,27.47
2018-05-26T16:31:08.976Z,27.57
2018-05-26T16:33:36.574Z,27.46
2018-05-26T16:36:04.203Z,27.31
2018-05-26T16:38:31.861Z,27.28
2018-05-26T16:40:59.474Z,27.21
2018-05-26T16:43:27.074Z,27.30
2018-05-26T16:45:54.905Z,27.42
2018-05-26T16:48:22.499Z,27.58
2018-05-26T16:50:50.093Z,27.57
2018-05-26T16:53:17.749Z,27.62
2018-05-26T16:55:45.339Z,27.68
2018-05-26T16:58:13.146Z,27.41
2018-05-26T17:00:40.981Z,27.29
2018-05-26T17:03:08.749Z,27.14
2018-05-26T17:05:36.345Z,27.12
2018-05-26T17:08:03.951Z,27.18
2018-05-26T17:10:31.592Z,27.02
2018-05-26T17:12:59.189Z,26.94
2018-05-26T17:15:26.816Z,26.84
2018-05-26T17:17:54.441Z,26.72
2018-05-26T17:20:22.565Z,26.75
2018-05-26T17:22:50.508Z,26.73
2018-05-26T17:25:18.164Z,26.75
2018-05-26T17:27:45.881Z,26.72
2018-05-26T17:30:13.657Z,26.67
2018-05-26T17:32:41.279Z,26.65
2018-05-26T17:35:09.491Z,26.62
2018-05-26T17:37:37.353Z,26.50
2018-05-26T17:40:04.947Z,26.40
2018-05-26T17:42:32.550Z,26.34
2018-05-26T17:45:00.174Z,26.30
2018-05-26T17:47:27.779Z,26.31
2018-05-26T17:49:55.445Z,26.51
2018-05-26T17:52:23.053Z,26.95
2018-05-26T17:54:50.643Z,27.72
2018-05-26T17:57:18.296Z,28.57
2018-05-26T17:59:45.926Z,29.11
2018-05-26T18:02:14.295Z,29.27
2018-05-26T18:04:41.940Z,28.95
2018-05-26T18:07:09.567Z,28.42
2018-05-26T18:09:37.183Z,28.03
2018-05-26T18:12:04.841Z,27.83
2018-05-26T18:14:32.480Z,27.49
2018-05-26T18:17:00.086Z,27.20
2018-05-26T18:19:27.727Z,27.07
2018-05-26T18:21:55.422Z,26.81
2018-05-26T18:24:23.018Z,26.55
2018-05-26T18:26:50.695Z,26.38
2018-05-26T18:29:18.370Z,26.24
2018-05-26T18:31:45.999Z,26.10
2018-05-26T18:34:13.600Z,25.99
2018-05-26T18:36:41.458Z,25.91
2018-05-26T18:39:09.111Z,25.69
2018-05-26T18:41:36.720Z,25.54
2018-05-26T18:44:04.453Z,25.44
2018-05-26T18:46:32.061Z,25.26
2018-05-26T18:48:59.687Z,25.11
2018-05-26T18:51:27.286Z,25.03
2018-05-26T18:53:54.945Z,25.02
2018-05-26T18:56:22.538Z,24.94
2018-05-26T18:58:50.423Z,24.92
2018-05-26T19:01:18.826Z,24.85
2018-05-26T19:03:46.442Z,24.74
2018-05-26T19:06:14.051Z,24.66
2018-05-26T19:08:41.650Z,24.51
2018-05-26T19:11:09.288Z,24.44
2018-05-26T19:13:36.894Z,24.32
2018-05-26T19:16:04.553Z,24.23
2018-05-26T19:18:32.705Z,24.20
2018-05-26T19:21:00.308Z,24.17
2018-05-26T19:23:27.972Z,24.10
2018-05-26T19:25:55.601Z,24.05
2018-05-26T19:28:23.246Z,23.98
2018-05-26T19:30:51.058Z,23.93
2018-05-26T19:33:18.940Z,23.85
2018-05-26T19:35:46.545Z,23.78
2018-05-26T19:38:14.167Z,23.72
2018-05-26T19:40:41.802Z,23.52
2018-05-26T19:43:09.415Z,23.43
2018-05-26T19:45:37.239Z,23.32
2018-05-26T19:48:04.855Z,23.22
2018-05-26T19:50:32.886Z,23.18
2018-05-26T19:53:00.517Z,23.16
2018-05-26T19:55:28.124Z,23.16
2018-05-26T19:57:55.779Z,23.12
2018-05-26T20:00:23.389Z,23.04
2018-05-26T20:02:51.216Z,22.96
2018-05-26T20:05:18.842Z,22.96
2018-05-26T20:07:46.478Z,22.92
2018-05-26T20:10:14.100Z,22.88
2018-05-26T20:12:41.730Z,22.85
2018-05-26T20:15:09.443Z,22.77
2018-05-26T20:17:37.219Z,22.68
2018-05-26T20:20:04.829Z,22.65
2018-05-26T20:22:32.454Z,22.62
2018-05-26T20:25:00.196Z,22.52
2018-05-26T20:27:27.821Z,22.45
2018-05-26T20:29:55.451Z,22.46
2018-05-26T20:32:23.179Z,22.45
2018-05-26T20:34:50.847Z,22.35
2018-05-26T20:37:18.483Z,22.27
2018-05-26T20:39:46.237Z,22.26
2018-05-26T20:42:14.194Z,22.19
2018-05-26T20:44:42.038Z,22.15
2018-05-26T20:47:10.133Z,22.08
2018-05-26T20:49:38.119Z,22.01
2018-05-26T20:52:05.743Z,22.01
2018-05-26T20:54:33.399Z,21.92
2018-05-26T20:57:01.000Z,21.85
2018-05-26T20:59:30.296Z,21.82
2018-05-26T21:01:57.892Z,21.82
2018-05-26T21:04:25.565Z,21.78
2018-05-26T21:06:53.332Z,21.77
2018-05-26T21:09:20.976Z,21.73
2018-05-26T21:11:48.576Z,21.64
2018-05-26T21:14:16.221Z,21.62
2018-05-26T21:16:43.840Z,21.60
2018-05-26T21:19:11.472Z,21.44
2018-05-26T21:21:39.098Z,21.41
2018-05-26T21:24:06.718Z,21.32
2018-05-26T21:26:34.364Z,21.30
2018-05-26T21:29:01.975Z,21.26
2018-05-26T21:31:29.610Z,21.27
2018-05-26T21:33:57.215Z,21.26
2018-05-26T21:36:24.858Z,21.23
2018-05-26T21:38:52.450Z,21.17
2018-05-26T21:41:20.127Z,21.12
2018-05-26T21:43:47.751Z,20.99
2018-05-26T21:46:15.763Z,21.00
2018-05-26T21:48:43.410Z,20.98
2018-05-26T21:51:11.244Z,20.91
2018-05-26T21:53:39.193Z,20.85
2018-05-26T21:56:06.805Z,20.81
2018-05-26T21:58:34.486Z,20.78
2018-05-26T22:01:02.090Z,20.75
2018-05-26T22:03:29.731Z,20.73
2018-05-26T22:05:57.322Z,20.72
2018-05-26T22:08:24.988Z,20.67
2018-05-26T22:10:52.618Z,20.57
2018-05-26T22:13:20.214Z,20.50
2018-05-26T22:15:47.915Z,20.45
2018-05-26T22:18:15.644Z,20.43
2018-05-26T22:20:43.253Z,20.36
2018-05-26T22:23:10.846Z,20.32
2018-05-26T22:25:38.502Z,20.24
2018-05-26T22:28:06.125Z,20.21
2018-05-26T22:30:33.730Z,20.16
2018-05-26T22:33:01.377Z,20.16
2018-05-26T22:35:28.998Z,20.16
2018-05-26T22:37:56.628Z,20.13
2018-05-26T22:40:24.231Z,20.04
2018-05-26T22:42:52.202Z,20.02
2018-05-26T22:45:19.819Z,20.01
2018-05-26T22:47:47.428Z,19.97
2018-05-26T22:50:15.045Z,19.94
2018-05-26T22:52:42.727Z,19.92
2018-05-26T22:55:10.355Z,19.91
2018-05-26T22:57:37.973Z,19.88
2018-05-26T23:00:05.844Z,19.87
2018-05-26T23:02:33.438Z,19.82
2018-05-26T23:05:01.066Z,19.82
2018-05-26T23:07:28.714Z,19.79
2018-05-26T23:09:56.323Z,19.78
2018-05-26T23:12:23.977Z,19.68
2018-05-26T23:14:51.607Z,19.63
2018-05-26T23:17:19.275Z,19.60
2018-05-26T23:19:46.871Z,19.56
2018-05-26T23:22:14.477Z,19.56
2018-05-26T23:24:42.108Z,19.51
2018-05-26T23:27:09.719Z,19.51
2018-05-26T23:29:37.355Z,19.50
2018-05-26T23:32:04.993Z,19.39
2018-05-26T23:34:32.901Z,19.37
2018-05-26T23:37:00.507Z,19.37
2018-05-26T23:39:28.103Z,19.40
2018-05-26T23:41:55.793Z,19.37
2018-05-26T23:44:23.391Z,19.34
2018-05-26T23:46:51.024Z,19.26
2018-05-26T23:49:18.620Z,19.26
2018-05-26T23:51:46.256Z,19.25
2018-05-26T23:54:13.901Z,19.22
2018-05-26T23:56:41.507Z,19.20
2018-05-26T23:59:09.127Z,19.18
